Time;durP1;ratioP1;P1;durP2;ratioP2;P2;SDS_P1;SDS_P2;PMS_P1;PMS_P2;Temp;Humidity;BMP_temperature;BMP_pressure;BME280_temperature;BME280_humidity;BME280_pressure;Samples;Min_cycle;Max_cycle;Signal;HPM_P1;HPM_P2
2022/10/05 00:01:00;;;;;;;;;;;;;;;19.70;53.52;101661.19;5006982;28;19921;-59
2022/10/05 00:03:26;;;;;;;;;;;;;;;19.70;53.53;101646.88;5006567;28;19909;-59
2022/10/05 00:05:51;;;;;;;;;;;;;;;19.69;53.63;101646.03;5024648;28;20469;-59
2022/10/05 00:08:17;;;;;;;;;;;;;;;19.68;53.50;101652.44;5006469;28;19952;-59
2022/10/05 00:10:42;;;;;;;;;;;;;;;19.69;53.47;101642.47;5024412;28;19962;-60
2022/10/05 00:13:15;;;;;;;;;;;;;;;19.68;53.82;101646.19;5028013;28;19909;-59
2022/10/05 00:15:41;;;;;;;;;;;;;;;19.68;53.53;101638.09;5038039;28;19920;-59
2022/10/05 00:18:11;;;;;;;;;;;;;;;19.68;53.62;101646.19;5024295;28;19909;-59
2022/10/05 00:20:36;;;;;;;;;;;;;;;19.68;53.75;101638.09;5006606;28;19910;-59
2022/10/05 00:23:01;;;;;;;;;;;;;;;19.67;53.75;101639.09;5022727;28;20011;-59
2022/10/05 00:25:26;;;;;;;;;;;;;;;19.68;53.56;101635.41;4995864;28;19914;-59
2022/10/05 00:27:55;;;;;;;;;;;;;;;19.67;53.47;101641.81;5004161;28;19909;-59
2022/10/05 00:30:20;;;;;;;;;;;;;;;19.67;53.42;101647.19;5004670;28;19914;-60
2022/10/05 00:32:46;;;;;;;;;;;;;;;19.66;53.48;101640.94;5004470;28;20322;-59
2022/10/05 00:35:11;;;;;;;;;;;;;;;19.67;53.69;101633.72;5004802;28;20255;-59
2022/10/05 00:37:36;;;;;;;;;;;;;;;19.66;53.54;101640.94;5004298;28;20355;-59
2022/10/05 00:40:03;;;;;;;;;;;;;;;19.66;53.51;101642.78;5004488;28;19921;-59
2022/10/05 00:42:35;;;;;;;;;;;;;;;19.65;53.57;101652.72;4986580;28;19914;-59
2022/10/05 00:45:01;;;;;;;;;;;;;;;19.65;53.40;101641.09;4987118;28;19910;-59
2022/10/05 00:47:36;;;;;;;;;;;;;;;19.64;53.42;101640.25;5023834;28;19977;-59
2022/10/05 00:50:22;;;;;;;;;;;;;;;19.64;53.70;101637.56;5024319;28;19920;-59
2022/10/05 00:52:53;;;;;;;;;;;;;;;19.64;53.71;101639.41;5005955;28;19917;-59
2022/10/05 00:55:18;;;;;;;;;;;;;;;19.64;53.70;101637.56;5006370;28;19960;-59
2022/10/05 00:57:46;;;;;;;;;;;;;;;19.64;53.67;101631.31;5023465;28;19913;-59
2022/10/05 01:00:13;;;;;;;;;;;;;;;19.64;53.72;101620.53;5024083;28;19932;-59
2022/10/05 01:02:45;;;;;;;;;;;;;;;19.63;53.79;101619.69;5006052;28;19909;-59
2022/10/05 01:05:13;;;;;;;;;;;;;;;19.63;53.55;101616.97;5006484;28;20424;-60
2022/10/05 01:07:53;;;;;;;;;;;;;;;19.63;53.69;101622.38;5023434;28;19956;-60
2022/10/05 01:10:18;;;;;;;;;;;;;;;19.62;53.63;101617.13;5023905;28;19913;-59
2022/10/05 01:12:57;;;;;;;;;;;;;;;19.63;53.68;101618.84;5023464;28;19910;-60
2022/10/05 01:15:25;;;;;;;;;;;;;;;19.62;53.40;101619.81;5020195;28;20008;-60
2022/10/05 01:18:13;;;;;;;;;;;;;;;19.62;53.57;101614.41;5023376;28;19971;-59
2022/10/05 01:20:38;;;;;;;;;;;;;;;19.62;53.75;101611.72;5015535;28;19909;-59
2022/10/05 01:23:19;;;;;;;;;;;;;;;19.62;53.44;101606.31;5023008;28;19948;-59
2022/10/05 01:26:02;;;;;;;;;;;;;;;19.61;53.65;101596.56;5023909;28;19909;-60
2022/10/05 01:28:28;;;;;;;;;;;;;;;19.60;53.38;101595.69;5005769;28;19937;-58
2022/10/05 01:30:59;;;;;;;;;;;;;;;19.61;53.68;101599.25;5005948;28;19909;-59
2022/10/05 01:33:28;;;;;;;;;;;;;;;19.60;53.52;101589.44;5025181;28;19936;-59
2022/10/05 01:36:03;;;;;;;;;;;;;;;19.60;53.58;101592.13;5009859;28;19910;-59
2022/10/05 01:38:42;;;;;;;;;;;;;;;19.60;53.55;101584.88;5026488;28;19924;-59
2022/10/05 01:41:11;;;;;;;;;;;;;;;19.59;53.43;101582.34;5009539;28;19916;-59
2022/10/05 01:43:41;;;;;;;;;;;;;;;19.58;53.72;101568.03;5026800;28;19951;-59
2022/10/05 01:46:23;;;;;;;;;;;;;;;19.59;53.43;101566.16;5009294;28;19909;-59
2022/10/05 01:48:52;;;;;;;;;;;;;;;19.58;53.53;101561.75;5009354;28;19939;-60
2022/10/05 01:51:20;;;;;;;;;;;;;;;19.58;53.66;101557.25;5026615;28;20382;-58
2022/10/05 01:53:48;;;;;;;;;;;;;;;19.57;53.53;101557.38;5009053;28;19906;-59
2022/10/05 01:56:17;;;;;;;;;;;;;;;19.57;53.43;101555.50;5026955;28;19932;-59
2022/10/05 01:58:52;;;;;;;;;;;;;;;19.58;53.53;101553.66;5026309;28;19941;-59
2022/10/05 02:01:20;;;;;;;;;;;;;;;19.57;53.66;101536.63;5009336;28;19940;-59
2022/10/05 02:03:51;;;;;;;;;;;;;;;19.57;53.40;101533.09;5026617;28;19973;-59
2022/10/05 02:06:18;;;;;;;;;;;;;;;19.56;53.50;101537.66;5026469;28;19973;-60
2022/10/05 02:08:46;;;;;;;;;;;;;;;19.56;53.60;101536.81;5026502;28;20019;-59
2022/10/05 02:11:12;;;;;;;;;;;;;;;19.57;53.48;101533.09;5009183;28;19920;-59
2022/10/05 02:13:42;;;;;;;;;;;;;;;19.56;53.38;101531.41;5008489;28;20294;-60
2022/10/05 02:16:09;;;;;;;;;;;;;;;19.56;53.36;101520.63;5008938;28;19910;-59
2022/10/05 02:18:39;;;;;;;;;;;;;;;19.55;53.52;101519.78;5008846;28;19921;-59
2022/10/05 02:21:04;;;;;;;;;;;;;;;19.54;53.69;101512.69;5001079;28;20010;-59
2022/10/05 02:23:31;;;;;;;;;;;;;;;19.55;53.46;101500.06;5005934;28;19910;-60
2022/10/05 02:25:56;;;;;;;;;;;;;;;19.54;53.59;101496.50;5013653;28;20051;-60
2022/10/05 02:28:36;;;;;;;;;;;;;;;19.54;53.64;101503.72;5025879;28;20397;-60
2022/10/05 02:31:08;;;;;;;;;;;;;;;19.53;53.68;101500.19;5008638;28;20283;-59
2022/10/05 02:33:33;;;;;;;;;;;;;;;19.53;53.31;101497.50;5026113;28;19917;-59
2022/10/05 02:36:19;;;;;;;;;;;;;;;19.53;53.43;101497.50;5008822;28;19909;-59
2022/10/05 02:38:48;;;;;;;;;;;;;;;19.52;53.26;101495.81;5008432;28;19917;-59
2022/10/05 02:41:17;;;;;;;;;;;;;;;19.53;53.52;101504.75;5008621;28;19963;-60
2022/10/05 02:43:52;;;;;;;;;;;;;;;19.53;53.57;101502.03;5007879;28;19913;-59
2022/10/05 02:46:26;;;;;;;;;;;;;;;19.52;53.42;101506.59;5007627;28;19920;-59
2022/10/05 02:49:01;;;;;;;;;;;;;;;19.52;53.46;101498.50;5025936;28;19913;-60
2022/10/05 02:51:27;;;;;;;;;;;;;;;19.52;53.54;101492.28;5025274;28;19916;-59
2022/10/05 02:54:01;;;;;;;;;;;;;;;19.51;53.77;101493.28;5008291;28;19995;-59
2022/10/05 02:56:27;;;;;;;;;;;;;;;19.51;53.53;101493.28;5025765;28;19910;-58
2022/10/05 02:58:55;;;;;;;;;;;;;;;19.51;53.34;101482.50;5025565;28;19916;-60
2022/10/05 03:01:20;;;;;;;;;;;;;;;19.50;53.22;101484.34;5008132;28;19910;-59
2022/10/05 03:03:46;;;;;;;;;;;;;;;19.50;53.46;101478.97;5025322;28;19964;-59
2022/10/05 03:06:14;;;;;;;;;;;;;;;19.51;53.50;101485.19;5008072;28;19909;-58
2022/10/05 03:08:46;;;;;;;;;;;;;;;19.50;53.58;101484.34;5007935;28;19920;-60
2022/10/05 03:11:30;;;;;;;;;;;;;;;19.51;53.54;101495.97;5008074;28;19917;-60
2022/10/05 03:13:56;;;;;;;;;;;;;;;19.49;53.29;101486.19;5015250;28;20322;-60
2022/10/05 03:16:21;;;;;;;;;;;;;;;19.48;53.30;101481.78;5024977;28;19973;-60
2022/10/05 03:18:49;;;;;;;;;;;;;;;19.48;53.40;101475.56;5025166;28;19913;-59
2022/10/05 03:21:23;;;;;;;;;;;;;;;19.48;53.30;101480.94;5025107;28;19933;-58
2022/10/05 03:23:52;;;;;;;;;;;;;;;19.48;53.56;101491.75;5024885;28;20007;-59
2022/10/05 03:26:17;;;;;;;;;;;;;;;19.48;53.54;101478.25;5007775;28;19916;-59
2022/10/05 03:28:50;;;;;;;;;;;;;;;19.48;53.27;101479.09;5024818;28;19917;-60
2022/10/05 03:31:26;;;;;;;;;;;;;;;19.47;53.42;101476.56;5007804;28;19917;-59
2022/10/05 03:34:04;;;;;;;;;;;;;;;19.46;53.27;101481.13;5007347;28;19916;-59
2022/10/05 03:36:41;;;;;;;;;;;;;;;19.47;53.29;101480.09;5006813;28;19913;-59
2022/10/05 03:39:18;;;;;;;;;;;;;;;19.46;53.43;101488.38;5024894;28;19917;-59
2022/10/05 03:41:47;;;;;;;;;;;;;;;19.46;53.40;101491.91;5007179;28;19979;-60
2022/10/05 03:44:15;;;;;;;;;;;;;;;19.46;53.55;101491.06;5007230;28;19915;-60
2022/10/05 03:46:49;;;;;;;;;;;;;;;19.45;53.53;101484.81;5024969;28;19909;-60
2022/10/05 03:49:17;;;;;;;;;;;;;;;19.46;53.16;101496.47;5024780;28;19913;-59
2022/10/05 03:51:46;;;;;;;;;;;;;;;19.45;53.31;101489.34;5024226;28;19948;-59
2022/10/05 03:54:15;;;;;;;;;;;;;;;19.44;53.43;101496.59;5006877;28;19995;-60
2022/10/05 03:56:44;;;;;;;;;;;;;;;19.44;53.55;101485.81;5006257;28;19916;-59
2022/10/05 03:59:17;;;;;;;;;;;;;;;19.45;53.43;101498.31;5006993;28;19916;-59
2022/10/05 04:01:48;;;;;;;;;;;;;;;19.44;53.50;101503.84;5006928;28;20468;-60
2022/10/05 04:04:18;;;;;;;;;;;;;;;19.43;53.16;101492.22;5024554;28;19910;-59
2022/10/05 04:06:47;;;;;;;;;;;;;;;19.43;53.25;101486.81;5006058;28;19939;-59
2022/10/05 04:09:29;;;;;;;;;;;;;;;19.43;53.45;101485.97;5007057;28;20402;-59
2022/10/05 04:11:54;;;;;;;;;;;;;;;19.42;53.31;101487.00;5016904;28;20524;-59
2022/10/05 04:14:22;;;;;;;;;;;;;;;19.42;53.28;101489.69;5038233;28;19916;-60
2022/10/05 04:16:49;;;;;;;;;;;;;;;19.41;53.44;101478.06;5044438;28;19932;-60
2022/10/05 04:19:29;;;;;;;;;;;;;;;19.41;53.46;101480.75;5039521;28;20475;-60
2022/10/05 04:21:56;;;;;;;;;;;;;;;19.41;53.54;101479.88;5036603;28;19936;-60
2022/10/05 04:24:48;;;;;;;;;;;;;;;19.41;53.47;101478.06;5026127;28;19924;-59
2022/10/05 04:27:49;;;;;;;;;;;;;;;19.41;53.22;101472.66;5023012;28;19917;-55
2022/10/05 04:30:18;;;;;;;;;;;;;;;19.40;53.49;101464.72;4961248;29;19914;-60
2022/10/05 04:32:43;;;;;;;;;;;;;;;19.39;53.48;101458.47;4947220;29;19916;-59
2022/10/05 04:35:14;;;;;;;;;;;;;;;19.40;53.49;101462.00;4956300;29;19962;-60
2022/10/05 04:37:45;;;;;;;;;;;;;;;19.39;53.22;101469.25;4924448;29;19915;-60
2022/10/05 04:40:29;;;;;;;;;;;;;;;19.39;53.21;101455.78;4925011;29;19955;-59
2022/10/05 04:43:17;;;;;;;;;;;;;;;19.38;53.43;101454.09;4924115;29;19915;-59
2022/10/05 04:45:56;;;;;;;;;;;;;;;19.39;53.38;101458.47;4911718;29;19930;-59
2022/10/05 04:48:40;;;;;;;;;;;;;;;19.38;53.34;101456.78;4943760;29;19910;-59
2022/10/05 04:51:05;;;;;;;;;;;;;;;19.38;53.54;101453.25;4943977;29;20013;-59
2022/10/05 04:53:32;;;;;;;;;;;;;;;19.38;53.41;101454.09;4942346;29;19911;-59
2022/10/05 04:56:04;;;;;;;;;;;;;;;19.38;53.37;101446.00;4950069;29;19914;-60
2022/10/05 04:58:35;;;;;;;;;;;;;;;19.38;53.31;101439.78;4926544;29;19915;-59
2022/10/05 05:01:01;;;;;;;;;;;;;;;19.38;53.54;101445.16;4943427;29;19974;-59
2022/10/05 05:03:41;;;;;;;;;;;;;;;19.38;53.42;101445.16;4956298;28;19916;-59
2022/10/05 05:06:25;;;;;;;;;;;;;;;19.37;53.34;101438.94;5023265;28;19909;-60
2022/10/05 05:08:59;;;;;;;;;;;;;;;19.39;53.50;101441.47;5006004;28;19922;-60
2022/10/05 05:11:33;;;;;;;;;;;;;;;19.38;53.78;101435.22;5018824;28;19910;-60
2022/10/05 05:14:16;;;;;;;;;;;;;;;19.38;53.85;101434.38;5026233;28;19952;-59
2022/10/05 05:16:42;;;;;;;;;;;;;;;19.39;53.88;101438.75;5026615;28;19920;-60
2022/10/05 05:19:10;;;;;;;;;;;;;;;19.40;53.86;101440.44;5009151;28;19909;-59
2022/10/05 05:21:36;;;;;;;;;;;;;;;19.40;53.81;101429.66;5009063;28;19914;-58
2022/10/05 05:24:02;;;;;;;;;;;;;;;19.40;53.91;101429.66;5026630;28;19917;-59
2022/10/05 05:26:38;;;;;;;;;;;;;;;19.39;54.00;101426.13;5008915;28;19976;-59
2022/10/05 05:29:13;;;;;;;;;;;;;;;19.41;54.09;101432.22;5007262;28;19918;-59
2022/10/05 05:31:47;;;;;;;;;;;;;;;19.40;54.12;101414.31;5018092;28;19921;-60
2022/10/05 05:34:32;;;;;;;;;;;;;;;19.40;54.18;101417.03;5026529;28;19913;-59
2022/10/05 05:37:06;;;;;;;;;;;;;;;19.42;54.17;101417.72;5026143;28;19943;-60
2022/10/05 05:39:40;;;;;;;;;;;;;;;19.42;54.23;101416.88;5026691;28;19924;-59
2022/10/05 05:42:17;;;;;;;;;;;;;;;19.42;54.09;101422.28;5024664;28;20392;-59
2022/10/05 05:44:44;;;;;;;;;;;;;;;19.41;54.22;101413.34;5023912;28;20109;-60
2022/10/05 05:47:19;;;;;;;;;;;;;;;19.43;54.02;101421.25;5008918;28;19917;-58
2022/10/05 05:50:03;;;;;;;;;;;;;;;19.42;54.24;101414.19;5026138;28;19913;-59
2022/10/05 05:52:30;;;;;;;;;;;;;;;19.42;54.06;101408.78;5025670;28;19951;-59
2022/10/05 05:54:59;;;;;;;;;;;;;;;19.42;54.30;101414.19;5026024;28;19940;-59
2022/10/05 05:57:27;;;;;;;;;;;;;;;19.43;54.25;101410.47;5023708;28;19939;-59
2022/10/05 05:59:59;;;;;;;;;;;;;;;19.42;54.11;101417.72;5008599;28;19913;-59
2022/10/05 06:02:26;;;;;;;;;;;;;;;19.42;54.32;101412.31;5006887;28;19916;-59
2022/10/05 06:04:53;;;;;;;;;;;;;;;19.42;54.24;101423.13;5006470;28;19910;-59
2022/10/05 06:07:20;;;;;;;;;;;;;;;19.43;54.12;101411.31;5008220;28;19955;-58
2022/10/05 06:09:56;;;;;;;;;;;;;;;19.43;54.12;101413.16;4992331;28;19921;-59
2022/10/05 06:12:21;;;;;;;;;;;;;;;19.43;54.37;101413.16;5007524;28;19922;-58
2022/10/05 06:14:49;;;;;;;;;;;;;;;19.44;54.40;101414.84;5006498;28;19974;-59
2022/10/05 06:17:19;;;;;;;;;;;;;;;19.43;54.17;101416.72;5026022;28;19913;-58
2022/10/05 06:19:44;;;;;;;;;;;;;;;19.43;54.57;101416.72;5007142;28;19909;-59
2022/10/05 06:22:18;;;;;;;;;;;;;;;19.43;54.23;101421.25;5025619;28;19963;-58
2022/10/05 06:24:52;;;;;;;;;;;;;;;19.44;54.49;101415.69;5025550;28;20313;-58
2022/10/05 06:27:33;;;;;;;;;;;;;;;19.43;54.35;101416.72;5025484;28;19986;-58
2022/10/05 06:30:06;;;;;;;;;;;;;;;19.44;54.48;101417.53;5019331;28;19921;-58
2022/10/05 06:32:33;;;;;;;;;;;;;;;19.45;54.48;101419.22;5005689;28;19914;-58
2022/10/05 06:35:09;;;;;;;;;;;;;;;19.44;54.38;101429.19;5025521;28;19916;-58
2022/10/05 06:37:53;;;;;;;;;;;;;;;19.44;54.41;101426.47;5005542;28;19976;-58
2022/10/05 06:40:21;;;;;;;;;;;;;;;19.45;54.60;101432.72;5024231;28;19917;-57
2022/10/05 06:42:54;;;;;;;;;;;;;;;19.45;54.63;101424.63;5007394;28;19909;-58
2022/10/05 06:45:34;;;;;;;;;;;;;;;19.45;54.54;101446.19;5005056;28;19976;-58
2022/10/05 06:48:10;;;;;;;;;;;;;;;19.45;54.47;101438.97;5007767;28;19914;-58
2022/10/05 06:50:42;;;;;;;;;;;;;;;19.45;54.58;101435.41;4989030;28;19939;-57
2022/10/05 06:53:07;;;;;;;;;;;;;;;19.46;54.32;101437.13;4996041;28;19917;-58
2022/10/05 06:55:53;;;;;;;;;;;;;;;19.45;54.52;101430.03;5025441;28;20329;-57
2022/10/05 06:58:22;;;;;;;;;;;;;;;19.19;54.20;101386.88;5007570;28;19936;-58
2022/10/05 07:00:51;;;;;;;;;;;;;;;19.46;54.21;101439.81;5007042;28;19949;-57
2022/10/05 07:03:36;;;;;;;;;;;;;;;19.46;54.33;101442.53;5007380;28;19936;-56
2022/10/05 07:06:13;;;;;;;;;;;;;;;19.47;54.39;101449.59;5023179;28;19933;-58
2022/10/05 07:08:57;;;;;;;;;;;;;;;19.46;54.21;101446.06;5022190;28;20565;-57
2022/10/05 07:11:24;;;;;;;;;;;;;;;19.46;54.25;101443.38;5023514;28;19985;-58
2022/10/05 07:13:50;;;;;;;;;;;;;;;19.47;54.44;101444.22;4997444;28;19909;-59
2022/10/05 07:16:34;;;;;;;;;;;;;;;19.46;54.46;101443.38;5006077;28;19920;-59
2022/10/05 07:19:17;;;;;;;;;;;;;;;19.47;54.25;101445.06;5005637;28;19910;-58
2022/10/05 07:21:42;;;;;;;;;;;;;;;19.47;54.05;101447.75;5005197;28;19952;-57
2022/10/05 07:24:12;;;;;;;;;;;;;;;19.47;54.06;101445.06;5021042;28;19910;-58
2022/10/05 07:26:37;;;;;;;;;;;;;;;19.48;54.05;101445.88;5007278;28;19909;-59
2022/10/05 07:29:05;;;;;;;;;;;;;;;19.47;54.32;101442.34;5024609;28;19919;-58
2022/10/05 07:31:45;;;;;;;;;;;;;;;19.48;54.25;101445.88;5024809;28;19909;-59
2022/10/05 07:34:16;;;;;;;;;;;;;;;19.48;54.30;101446.72;5007496;28;19909;-58
2022/10/05 07:39:31;;;;;;;;;;;;;;;19.48;54.17;101441.34;5009600;28;19959;-58
2022/10/05 07:42:17;;;;;;;;;;;;;;;19.48;54.17;101433.25;5007363;28;19955;-58
2022/10/05 07:44:47;;;;;;;;;;;;;;;19.49;53.87;101439.47;5024646;28;19976;-59
2022/10/05 07:47:17;;;;;;;;;;;;;;;19.49;53.91;101437.63;5007438;28;19936;-58
2022/10/05 07:49:58;;;;;;;;;;;;;;;19.48;54.00;101435.94;5007140;28;19918;-59
2022/10/05 07:52:24;;;;;;;;;;;;;;;19.50;53.73;101438.50;5024166;28;19910;-59
2022/10/05 07:55:04;;;;;;;;;;;;;;;19.49;53.87;101432.22;5006938;28;19914;-59
2022/10/05 07:57:38;;;;;;;;;;;;;;;19.49;53.98;101432.22;5006967;28;19910;-58
2022/10/05 08:00:19;;;;;;;;;;;;;;;19.51;53.88;101431.25;5006692;28;19921;-59
2022/10/05 08:02:51;;;;;;;;;;;;;;;19.50;53.90;101438.50;5024425;28;19909;-59
2022/10/05 08:05:25;;;;;;;;;;;;;;;19.51;54.00;101431.25;5006853;28;19909;-58
2022/10/05 08:08:07;;;;;;;;;;;;;;;19.52;53.85;101432.94;5006594;28;19913;-58
2022/10/05 08:10:35;;;;;;;;;;;;;;;19.53;53.72;101423.84;5030999;28;19967;-57
2022/10/05 08:13:39;;;;;;;;;;;;;;;19.54;53.81;101428.22;5006684;28;19964;-58
2022/10/05 08:16:08;;;;;;;;;;;;;;;19.53;53.55;101424.66;4963298;29;20445;-60
2022/10/05 08:18:52;;;;;;;;;;;;;;;19.53;53.72;101432.75;4947692;29;19977;-58
2022/10/05 08:21:19;;;;;;;;;;;;;;;19.55;53.71;101421.84;4947438;29;19917;-58
2022/10/05 08:23:46;;;;;;;;;;;;;;;19.54;53.50;101418.31;4947382;29;19910;-59
2022/10/05 08:26:23;;;;;;;;;;;;;;;19.56;53.64;101410.03;4957500;29;19949;-58
2022/10/05 08:28:58;;;;;;;;;;;;;;;19.55;53.42;101417.28;4946798;29;19947;-58
2022/10/05 08:31:28;;;;;;;;;;;;;;;19.57;53.36;101414.41;4947122;29;20663;-58
2022/10/05 08:34:03;;;;;;;;;;;;;;;19.57;53.77;101415.25;4947034;29;19914;-58
2022/10/05 08:36:38;;;;;;;;;;;;;;;19.58;53.40;101408.00;4947179;29;19914;-58
2022/10/05 08:39:04;;;;;;;;;;;;;;;19.58;53.57;101410.69;4962705;29;19962;-59
2022/10/05 08:41:36;;;;;;;;;;;;;;;19.59;53.52;101401.63;4946870;29;19926;-59
2022/10/05 08:44:33;;;;;;;;;;;;;;;19.60;53.51;101412.25;4965812;29;19911;-58
2022/10/05 08:47:02;;;;;;;;;;;;;;;19.61;53.20;101407.72;4944879;29;19918;-59
2022/10/05 08:49:42;;;;;;;;;;;;;;;19.62;53.39;101407.56;4966638;29;19918;-59
2022/10/05 08:52:19;;;;;;;;;;;;;;;19.63;53.43;101406.56;4950453;29;19910;-59
2022/10/05 08:54:47;;;;;;;;;;;;;;;19.64;53.33;101399.31;4950751;29;19922;-58
2022/10/05 08:57:31;;;;;;;;;;;;;;;19.64;53.41;101400.16;4966811;29;19910;-59
2022/10/05 08:59:56;;;;;;;;;;;;;;;19.65;53.43;101403.69;4966693;29;19963;-59
2022/10/05 09:02:30;;;;;;;;;;;;;;;19.66;53.06;101397.28;4967045;29;19915;-59
2022/10/05 09:05:13;;;;;;;;;;;;;;;19.66;53.18;101405.38;4966532;29;19916;-59
2022/10/05 09:07:57;;;;;;;;;;;;;;;19.68;53.24;101395.28;4966437;29;19910;-59
2022/10/05 09:10:40;;;;;;;;;;;;;;;19.68;53.17;101392.59;4966362;29;19977;-59
2022/10/05 09:13:17;;;;;;;;;;;;;;;19.70;53.34;101390.56;4962474;29;19914;-59
2022/10/05 09:15:51;;;;;;;;;;;;;;;19.70;53.20;101394.09;4931069;29;19910;-59
2022/10/05 09:18:35;;;;;;;;;;;;;;;19.71;52.95;101389.59;4915606;29;20681;-59
2022/10/05 09:21:05;;;;;;;;;;;;;;;19.71;52.94;101387.72;4931490;29;19946;-59
2022/10/05 09:23:43;;;;;;;;;;;;;;;19.72;52.98;101385.88;4992198;28;20025;-59
2022/10/05 09:26:27;;;;;;;;;;;;;;;19.72;52.91;101385.88;5008658;28;19944;-59
2022/10/05 09:28:58;;;;;;;;;;;;;;;19.72;52.98;101385.88;5026787;28;19932;-59
2022/10/05 09:31:29;;;;;;;;;;;;;;;19.72;53.14;101389.41;5009617;28;19932;-59
2022/10/05 09:34:13;;;;;;;;;;;;;;;19.73;53.00;101384.84;5002594;28;19910;-58
2022/10/05 09:36:58;;;;;;;;;;;;;;;19.73;53.07;101384.84;5006387;28;19997;-58
2022/10/05 09:39:29;;;;;;;;;;;;;;;19.73;53.22;101369.50;5012878;28;19933;-59
2022/10/05 09:42:01;;;;;;;;;;;;;;;19.74;53.21;101378.44;5007220;28;19933;-59
2022/10/05 09:44:45;;;;;;;;;;;;;;;19.75;53.24;101373.88;4989802;28;19916;-59
2022/10/05 09:47:30;;;;;;;;;;;;;;;19.75;53.32;101376.59;5008585;28;19910;-59
2022/10/05 09:50:13;;;;;;;;;;;;;;;19.75;53.39;101372.03;5008705;28;19929;-59
2022/10/05 09:52:38;;;;;;;;;;;;;;;19.76;53.16;101367.50;5008751;28;19916;-59
2022/10/05 09:55:07;;;;;;;;;;;;;;;19.78;53.20;101370.88;5026495;28;19909;-58
2022/10/05 09:57:35;;;;;;;;;;;;;;;19.78;53.47;101362.78;5026622;28;19931;-59
2022/10/05 10:00:21;;;;;;;;;;;;;;;19.78;53.28;101352.81;5026376;28;19909;-58
2022/10/05 10:03:05;;;;;;;;;;;;;;;19.78;53.19;101350.13;5026751;28;19932;-59
2022/10/05 10:05:57;;;;;;;;;;;;;;;19.78;53.46;101358.22;5026015;28;19917;-59
2022/10/05 10:08:35;;;;;;;;;;;;;;;19.79;53.39;101350.97;5022791;28;20009;-58
2022/10/05 10:11:19;;;;;;;;;;;;;;;19.79;53.40;101353.66;5008897;28;20294;-59
2022/10/05 10:13:52;;;;;;;;;;;;;;;19.80;53.45;101347.28;5017560;28;19984;-58
2022/10/05 10:16:29;;;;;;;;;;;;;;;19.80;53.25;101344.59;5025918;28;19916;-58
2022/10/05 10:18:54;;;;;;;;;;;;;;;19.81;53.64;101335.47;5020631;28;20348;-59
2022/10/05 10:21:19;;;;;;;;;;;;;;;19.82;53.58;101338.00;5014665;28;19917;-58
2022/10/05 10:24:02;;;;;;;;;;;;;;;19.85;53.62;101331.44;5018825;28;19937;-59
2022/10/05 10:26:46;;;;;;;;;;;;;;;19.86;53.34;101323.16;4999753;28;19921;-58
2022/10/05 10:29:17;;;;;;;;;;;;;;;19.88;53.36;101328.41;5025531;28;19949;-58
2022/10/05 10:31:58;;;;;;;;;;;;;;;19.89;53.42;101332.81;5008296;28;19913;-58
2022/10/05 10:34:43;;;;;;;;;;;;;;;19.92;53.32;101324.34;5008046;28;19909;-59
2022/10/05 10:37:11;;;;;;;;;;;;;;;19.94;53.50;101312.41;5007256;28;19988;-59
2022/10/05 10:39:55;;;;;;;;;;;;;;;19.96;53.18;101320.31;5025340;28;19963;-58
2022/10/05 10:42:32;;;;;;;;;;;;;;;19.99;53.20;101309.19;5025209;28;19917;-57
2022/10/05 10:44:57;;;;;;;;;;;;;;;20.01;53.46;101306.31;5025237;28;19917;-58
2022/10/05 10:47:29;;;;;;;;;;;;;;;19.50;53.48;101225.44;5025017;28;19913;-58
2022/10/05 10:50:14;;;;;;;;;;;;;;;20.05;53.37;101313.09;5024898;28;19913;-58
2022/10/05 10:52:42;;;;;;;;;;;;;;;20.06;53.16;101307.53;4981124;28;19913;-58
2022/10/05 10:55:13;;;;;;;;;;;;;;;20.08;53.35;101310.91;5025024;28;19968;-58
2022/10/05 10:57:44;;;;;;;;;;;;;;;20.08;53.06;101310.06;5015981;28;19913;-58
2022/10/05 11:00:16;;;;;;;;;;;;;;;20.07;53.14;101306.53;5024743;28;19909;-58
2022/10/05 11:02:45;;;;;;;;;;;;;;;20.08;53.14;101310.91;5022279;28;19909;-58
2022/10/05 11:05:31;;;;;;;;;;;;;;;20.09;53.06;101299.13;5023994;28;19916;-58
2022/10/05 11:07:57;;;;;;;;;;;;;;;20.09;53.41;101307.22;4987636;28;19961;-58
2022/10/05 11:10:31;;;;;;;;;;;;;;;20.10;53.13;101305.34;5005593;28;19976;-58
2022/10/05 11:13:15;;;;;;;;;;;;;;;20.11;53.24;101301.63;4990772;28;19917;-58
2022/10/05 11:15:59;;;;;;;;;;;;;;;20.12;53.18;101295.22;5036847;28;19909;-58
2022/10/05 11:18:37;;;;;;;;;;;;;;;20.11;53.07;101302.47;5044823;28;19909;-58
2022/10/05 11:21:21;;;;;;;;;;;;;;;20.11;53.17;101301.63;5044752;28;19909;-59
2022/10/05 11:23:46;;;;;;;;;;;;;;;20.11;53.08;101288.13;5027722;28;20359;-59
2022/10/05 11:26:31;;;;;;;;;;;;;;;20.11;53.13;101294.38;5025007;28;19922;-59
2022/10/05 11:29:25;;;;;;;;;;;;;;;20.10;53.12;101294.56;5024722;28;19917;-58
2022/10/05 11:31:58;;;;;;;;;;;;;;;20.10;53.13;101289.16;5010858;28;19917;-59
2022/10/05 11:34:32;;;;;;;;;;;;;;;20.09;53.15;101269.41;5006506;28;19909;-58
2022/10/05 11:37:07;;;;;;;;;;;;;;;20.09;53.44;101276.66;5024428;28;19905;-59
2022/10/05 11:39:32;;;;;;;;;;;;;;;20.08;53.19;101275.81;5024949;28;19924;-59
2022/10/05 11:42:12;;;;;;;;;;;;;;;20.07;53.55;101279.53;5024436;28;19913;-59
2022/10/05 11:44:56;;;;;;;;;;;;;;;20.07;53.20;101281.38;5024780;28;19917;-59
2022/10/05 11:47:21;;;;;;;;;;;;;;;20.05;53.63;101273.47;5024513;28;19924;-59
2022/10/05 11:49:49;;;;;;;;;;;;;;;20.05;53.39;101267.19;5024099;28;19913;-60
2022/10/05 11:52:15;;;;;;;;;;;;;;;20.04;53.30;101271.75;5017918;28;20028;-60
2022/10/05 11:54:40;;;;;;;;;;;;;;;20.04;53.75;101263.66;5018638;28;19914;-57
2022/10/05 11:57:16;;;;;;;;;;;;;;;20.04;53.62;101268.22;5023969;28;19913;-60
2022/10/05 11:59:59;;;;;;;;;;;;;;;20.04;53.86;101268.22;5023952;28;19909;-59
2022/10/05 12:02:34;;;;;;;;;;;;;;;20.03;53.63;101264.66;5024202;28;19916;-59
2022/10/05 12:05:03;;;;;;;;;;;;;;;20.04;53.90;101265.50;5023680;28;19923;-59
2022/10/05 12:07:34;;;;;;;;;;;;;;;20.04;53.71;101260.13;5006256;28;19909;-59
2022/10/05 12:10:20;;;;;;;;;;;;;;;20.04;53.71;101260.13;5024230;28;19917;-60
2022/10/05 12:12:45;;;;;;;;;;;;;;;20.03;53.91;101259.28;5006754;28;19925;-60
2022/10/05 12:15:13;;;;;;;;;;;;;;;20.04;53.62;101252.00;5023950;28;19909;-59
2022/10/05 12:17:41;;;;;;;;;;;;;;;20.04;53.64;101243.91;5023536;28;19909;-59
2022/10/05 12:20:15;;;;;;;;;;;;;;;20.04;53.94;101242.06;5038722;28;19920;-59
2022/10/05 12:22:40;;;;;;;;;;;;;;;20.04;53.75;101239.38;5032737;28;19936;-59
2022/10/05 12:25:32;;;;;;;;;;;;;;;20.04;53.84;101238.53;5006043;28;19913;-59
2022/10/05 12:28:02;;;;;;;;;;;;;;;20.03;53.77;101245.78;5009861;28;20016;-59
2022/10/05 12:30:29;;;;;;;;;;;;;;;20.05;53.62;101232.09;5006283;28;20275;-58
2022/10/05 12:32:57;;;;;;;;;;;;;;;20.04;53.61;101236.66;5006156;28;19937;-59
2022/10/05 12:35:23;;;;;;;;;;;;;;;20.04;53.76;101236.66;5023148;28;19913;-59
2022/10/05 12:38:06;;;;;;;;;;;;;;;20.05;53.90;101224.88;5023030;28;19921;-59
2022/10/05 12:40:32;;;;;;;;;;;;;;;20.07;53.65;101230.09;5023968;28;19909;-58
2022/10/05 12:43:17;;;;;;;;;;;;;;;20.06;53.71;101221.16;5005943;28;20362;-58
2022/10/05 12:45:59;;;;;;;;;;;;;;;20.08;53.79;101229.91;5005656;28;19913;-58
2022/10/05 12:48:32;;;;;;;;;;;;;;;20.07;53.88;101213.91;5005936;28;20243;-58
2022/10/05 12:51:09;;;;;;;;;;;;;;;20.08;53.82;101223.69;5005825;28;19916;-59
2022/10/05 12:53:38;;;;;;;;;;;;;;;20.08;53.93;101229.06;5022534;28;20285;-59
2022/10/05 12:56:07;;;;;;;;;;;;;;;20.07;53.95;101219.31;5023266;28;19960;-60
2022/10/05 12:58:36;;;;;;;;;;;;;;;20.07;53.92;101213.91;5005339;28;19934;-58
2022/10/05 13:01:01;;;;;;;;;;;;;;;20.08;53.75;101216.41;5005278;28;19909;-59
2022/10/05 13:03:32;;;;;;;;;;;;;;;20.09;53.75;101214.56;5022869;28;19909;-59
2022/10/05 13:06:02;;;;;;;;;;;;;;;20.09;53.71;101212.72;5005429;28;19914;-60
2022/10/05 13:08:44;;;;;;;;;;;;;;;20.10;53.84;101219.81;5024696;28;19909;-60